Time;durP1;ratioP1;P1;durP2;ratioP2;P2;SDS_P1;SDS_P2;PMS_P1;PMS_P2;Temp;Humidity;BMP_temperature;BMP_pressure;BME280_temperature;BME280_humidity;BME280_pressure;Samples;Min_cycle;Max_cycle;Signal;HPM_P1;HPM_P2
2022/10/26 00:01:53;;;;;;;;;;;12.50;99.90;;;;;;5078977;28;19924;-83
2022/10/26 00:04:19;;;;;;;;;;;12.50;99.90;;;;;;5076614;28;19933;-81
2022/10/26 00:06:46;;;;;;;;;;;12.50;99.90;;;;;;5073040;28;19932;-85
2022/10/26 00:09:13;;;;;;;;;;;12.40;99.90;;;;;;5075536;28;19924;-81
2022/10/26 00:11:41;;;;;;;;;;;12.40;99.90;;;;;;5076114;28;19984;-80
2022/10/26 00:14:08;;;;;;;;;;;12.40;99.90;;;;;;5077392;28;20432;-80
2022/10/26 00:16:35;;;;;;;;;;;12.40;99.90;;;;;;5074348;28;19939;-83
2022/10/26 00:19:01;;;;;;;;;;;12.50;99.90;;;;;;5077026;28;20309;-81
2022/10/26 00:21:28;;;;;;;;;;;12.40;99.90;;;;;;5074598;28;19925;-78
2022/10/26 00:23:55;;;;;;;;;;;12.40;99.90;;;;;;5074562;28;19929;-78
2022/10/26 00:26:22;;;;;;;;;;;12.40;99.90;;;;;;5074858;28;20601;-82
2022/10/26 00:28:52;;;;;;;;;;;12.40;99.90;;;;;;5106173;28;20069;-85
2022/10/26 00:31:19;;;;;;;;;;;12.30;99.90;;;;;;5072563;28;19924;-81
2022/10/26 00:33:45;;;;;;;;;;;12.40;99.90;;;;;;5077164;28;19974;-78
2022/10/26 00:36:15;;;;;;;;;;;12.40;99.90;;;;;;5076321;28;19950;-84
2022/10/26 00:38:44;;;;;;;;;;;12.40;99.90;;;;;;5070176;28;19924;-81
2022/10/26 00:41:14;;;;;;;;;;;12.50;99.90;;;;;;5074698;28;19925;-85
2022/10/26 00:43:40;;;;;;;;;;;12.40;99.90;;;;;;5074534;28;19988;-80
2022/10/26 00:46:11;;;;;;;;;;;12.40;99.90;;;;;;5072819;28;19957;-80
2022/10/26 00:48:40;;;;;;;;;;;12.40;99.90;;;;;;5074787;28;19924;-84
2022/10/26 00:51:08;;;;;;;;;;;12.30;99.90;;;;;;5071017;28;19946;-84
2022/10/26 00:53:35;;;;;;;;;;;12.50;99.90;;;;;;5074156;28;19964;-80
2022/10/26 00:56:03;;;;;;;;;;;12.30;99.90;;;;;;5075127;28;20527;-81
2022/10/26 00:58:30;;;;;;;;;;;12.30;99.90;;;;;;5078338;28;19943;-81
2022/10/26 01:00:57;;;;;;;;;;;12.30;99.90;;;;;;5070660;28;20001;-81
2022/10/26 01:03:26;;;;;;;;;;;12.30;99.90;;;;;;5075251;28;20073;-80
2022/10/26 01:05:55;;;;;;;;;;;12.30;99.90;;;;;;5110669;27;20290;-80
2022/10/26 01:08:22;;;;;;;;;;;12.30;99.90;;;;;;5073337;28;19924;-81
2022/10/26 01:10:49;;;;;;;;;;;12.40;99.90;;;;;;5070569;28;19932;-81
2022/10/26 01:13:17;;;;;;;;;;;12.30;99.90;;;;;;5075111;28;19928;-84
2022/10/26 01:15:51;;;;;;;;;;;12.30;99.90;;;;;;5078352;28;20256;-82
2022/10/26 01:18:23;;;;;;;;;;;12.30;99.90;;;;;;5104490;28;20410;-83
2022/10/26 01:21:08;;;;;;;;;;;12.30;99.90;;;;;;5075676;28;19966;-83
2022/10/26 01:23:43;;;;;;;;;;;12.30;99.90;;;;;;5108725;28;19986;-82
2022/10/26 01:26:43;;;;;;;;;;;12.30;99.90;;;;;;5075732;28;19925;-80
2022/10/26 01:29:20;;;;;;;;;;;12.30;99.90;;;;;;5027944;28;19948;-81
2022/10/26 01:31:51;;;;;;;;;;;12.30;99.90;;;;;;5030063;28;19925;-82
2022/10/26 01:34:21;;;;;;;;;;;12.20;99.90;;;;;;5055348;28;19925;-81
2022/10/26 01:36:52;;;;;;;;;;;12.20;99.90;;;;;;5071850;28;19984;-81
2022/10/26 01:39:21;;;;;;;;;;;12.20;99.90;;;;;;5074284;28;19959;-85
2022/10/26 01:41:49;;;;;;;;;;;12.20;99.90;;;;;;5076398;28;19952;-83
2022/10/26 01:44:18;;;;;;;;;;;12.20;99.90;;;;;;5067000;28;19958;-81
2022/10/26 01:46:47;;;;;;;;;;;12.20;99.90;;;;;;5075993;28;19924;-80
2022/10/26 01:49:16;;;;;;;;;;;12.10;99.90;;;;;;5071834;28;19933;-81
2022/10/26 01:51:45;;;;;;;;;;;12.10;99.90;;;;;;5075484;28;20011;-85
2022/10/26 01:54:11;;;;;;;;;;;12.10;99.90;;;;;;5071931;28;19955;-82
2022/10/26 01:56:39;;;;;;;;;;;12.10;99.90;;;;;;5075364;28;20309;-80
2022/10/26 01:59:13;;;;;;;;;;;12.10;99.90;;;;;;5076061;28;19928;-81
2022/10/26 02:02:07;;;;;;;;;;;12.10;99.90;;;;;;5073918;28;19925;-84
2022/10/26 02:04:39;;;;;;;;;;;12.10;99.90;;;;;;5043358;28;19935;-83
2022/10/26 02:07:11;;;;;;;;;;;12.10;99.90;;;;;;5077546;28;20279;-81
2022/10/26 02:09:41;;;;;;;;;;;12.10;99.90;;;;;;5074844;28;19934;-84
2022/10/26 02:12:13;;;;;;;;;;;12.10;99.90;;;;;;5071179;28;20020;-82
2022/10/26 02:14:45;;;;;;;;;;;12.10;99.90;;;;;;5077525;28;19932;-84
2022/10/26 02:17:14;;;;;;;;;;;12.10;99.90;;;;;;5079691;28;19932;-81
2022/10/26 02:19:44;;;;;;;;;;;12.10;99.90;;;;;;5070362;28;19924;-81
2022/10/26 02:22:15;;;;;;;;;;;12.10;99.90;;;;;;5076477;28;19925;-82
2022/10/26 02:24:43;;;;;;;;;;;12.10;99.90;;;;;;5077157;28;19932;-81
2022/10/26 02:27:13;;;;;;;;;;;12.10;99.90;;;;;;5074314;28;19995;-81
2022/10/26 02:29:41;;;;;;;;;;;12.10;99.90;;;;;;5072704;28;20035;-80
2022/10/26 02:32:08;;;;;;;;;;;12.10;99.90;;;;;;5103986;28;19978;-82
2022/10/26 02:34:37;;;;;;;;;;;12.10;99.90;;;;;;5077176;28;19928;-82
2022/10/26 02:37:05;;;;;;;;;;;12.10;99.90;;;;;;5073180;28;19924;-81
2022/10/26 02:39:33;;;;;;;;;;;12.00;99.90;;;;;;5071271;28;19928;-84
2022/10/26 02:42:01;;;;;;;;;;;12.00;99.90;;;;;;5072538;28;19924;-80
2022/10/26 02:44:30;;;;;;;;;;;12.00;99.90;;;;;;5072857;28;20362;-80
2022/10/26 02:46:56;;;;;;;;;;;12.00;99.90;;;;;;5073412;28;19995;-80
2022/10/26 02:49:23;;;;;;;;;;;12.00;99.90;;;;;;5076556;28;19925;-84
2022/10/26 02:51:53;;;;;;;;;;;12.00;99.90;;;;;;5075567;28;20364;-81
2022/10/26 02:54:25;;;;;;;;;;;12.00;99.90;;;;;;5075442;28;19964;-80
2022/10/26 02:56:54;;;;;;;;;;;12.00;99.90;;;;;;5107025;28;19925;-81
2022/10/26 02:59:22;;;;;;;;;;;12.00;99.90;;;;;;5075427;28;19956;-80
2022/10/26 03:01:50;;;;;;;;;;;12.00;99.90;;;;;;5072618;28;19978;-84
2022/10/26 03:04:17;;;;;;;;;;;12.10;99.90;;;;;;5076161;28;19928;-84
2022/10/26 03:06:51;;;;;;;;;;;12.00;99.90;;;;;;5077156;28;19964;-80
2022/10/26 03:09:18;;;;;;;;;;;12.00;99.90;;;;;;5072184;28;20031;-81
2022/10/26 03:11:46;;;;;;;;;;;12.00;99.90;;;;;;5111318;28;19938;-80
2022/10/26 03:14:13;;;;;;;;;;;12.00;99.90;;;;;;5074701;28;20425;-81
2022/10/26 03:16:40;;;;;;;;;;;12.00;99.90;;;;;;5075943;28;20003;-85
2022/10/26 03:19:06;;;;;;;;;;;12.00;99.90;;;;;;5089156;28;19931;-80
2022/10/26 03:21:33;;;;;;;;;;;12.00;99.90;;;;;;5076129;28;19952;-81
2022/10/26 03:24:00;;;;;;;;;;;11.90;99.90;;;;;;5074410;28;19951;-80
2022/10/26 03:26:27;;;;;;;;;;;11.90;99.90;;;;;;5074734;28;19930;-80
2022/10/26 03:28:55;;;;;;;;;;;11.90;99.90;;;;;;5077191;28;20838;-84
2022/10/26 03:31:22;;;;;;;;;;;11.90;99.90;;;;;;5075310;28;20102;-84
2022/10/26 03:33:48;;;;;;;;;;;11.90;99.90;;;;;;5069759;28;20030;-81
2022/10/26 03:36:15;;;;;;;;;;;11.90;99.90;;;;;;5076613;28;19924;-84
2022/10/26 03:38:42;;;;;;;;;;;11.90;99.90;;;;;;5077006;28;19924;-83
2022/10/26 03:41:09;;;;;;;;;;;12.00;99.90;;;;;;5069701;28;20153;-82
2022/10/26 03:43:36;;;;;;;;;;;12.00;99.90;;;;;;5066120;28;19960;-82
2022/10/26 03:46:04;;;;;;;;;;;11.90;99.90;;;;;;5072207;28;19928;-82
2022/10/26 03:48:30;;;;;;;;;;;11.90;99.90;;;;;;5070529;28;19932;-81
2022/10/26 03:50:58;;;;;;;;;;;11.80;99.90;;;;;;5067294;28;19928;-81
2022/10/26 03:53:25;;;;;;;;;;;11.90;99.90;;;;;;5101063;28;19925;-80
2022/10/26 03:55:52;;;;;;;;;;;11.90;99.90;;;;;;5069412;28;19935;-81
2022/10/26 03:58:22;;;;;;;;;;;11.90;99.90;;;;;;5069257;28;19924;-85
2022/10/26 04:00:54;;;;;;;;;;;11.80;99.90;;;;;;5066922;28;19924;-81
2022/10/26 04:03:22;;;;;;;;;;;11.90;99.90;;;;;;5049063;28;19946;-84
2022/10/26 04:05:49;;;;;;;;;;;11.90;99.90;;;;;;5066994;28;19951;-84
2022/10/26 04:08:16;;;;;;;;;;;11.90;99.90;;;;;;5070659;28;19968;-81
2022/10/26 04:10:43;;;;;;;;;;;11.90;99.90;;;;;;5067924;28;19967;-86
2022/10/26 04:13:09;;;;;;;;;;;11.80;99.90;;;;;;5049143;28;19940;-83
2022/10/26 04:15:36;;;;;;;;;;;11.80;99.90;;;;;;5068535;28;19932;-82
2022/10/26 04:18:03;;;;;;;;;;;11.80;99.90;;;;;;5073609;28;20019;-83
2022/10/26 04:20:33;;;;;;;;;;;11.80;99.90;;;;;;5097450;28;19971;-81
2022/10/26 04:23:00;;;;;;;;;;;11.80;99.90;;;;;;5070214;28;19931;-83
2022/10/26 04:25:27;;;;;;;;;;;11.80;99.90;;;;;;5070161;28;19979;-81
2022/10/26 04:27:54;;;;;;;;;;;11.80;99.90;;;;;;5075156;28;19928;-80
2022/10/26 04:30:21;;;;;;;;;;;11.80;99.90;;;;;;5070578;28;19932;-80
2022/10/26 04:32:48;;;;;;;;;;;11.80;99.90;;;;;;5095762;28;19995;-78
2022/10/26 04:35:14;;;;;;;;;;;11.80;99.90;;;;;;5066220;28;19929;-79
2022/10/26 04:37:43;;;;;;;;;;;11.80;99.90;;;;;;5058505;28;19924;-83
2022/10/26 04:40:12;;;;;;;;;;;11.80;99.90;;;;;;5069691;28;19928;-87
2022/10/26 04:42:42;;;;;;;;;;;11.80;99.90;;;;;;5063043;28;19924;-76
2022/10/26 04:45:09;;;;;;;;;;;11.80;99.90;;;;;;5066471;28;20018;-76
2022/10/26 04:47:36;;;;;;;;;;;11.80;99.90;;;;;;5061890;28;19924;-76
2022/10/26 04:50:05;;;;;;;;;;;11.80;99.90;;;;;;5062032;28;19932;-77
2022/10/26 04:52:32;;;;;;;;;;;11.80;99.90;;;;;;5099354;27;19967;-77
2022/10/26 04:55:00;;;;;;;;;;;11.80;99.90;;;;;;5059507;28;19959;-78
2022/10/26 04:57:27;;;;;;;;;;;11.80;99.90;;;;;;5083881;28;19995;-87
2022/10/26 04:59:54;;;;;;;;;;;11.80;99.90;;;;;;5064973;28;19940;-76
2022/10/26 05:02:21;;;;;;;;;;;11.80;99.90;;;;;;5064465;28;19975;-75
2022/10/26 05:04:48;;;;;;;;;;;11.80;99.90;;;;;;5060757;28;20155;-76
2022/10/26 05:07:15;;;;;;;;;;;11.80;99.90;;;;;;5064764;28;19943;-76
2022/10/26 05:09:41;;;;;;;;;;;11.80;99.90;;;;;;5064591;28;19932;-77
2022/10/26 05:12:10;;;;;;;;;;;11.80;99.90;;;;;;5063485;28;19940;-86
2022/10/26 05:14:36;;;;;;;;;;;11.80;99.90;;;;;;5099126;28;20010;-76
2022/10/26 05:17:03;;;;;;;;;;;11.80;99.90;;;;;;5063522;28;19978;-77
2022/10/26 05:19:30;;;;;;;;;;;11.80;99.90;;;;;;5066141;28;19960;-76
2022/10/26 05:21:57;;;;;;;;;;;11.80;99.90;;;;;;5063061;28;19931;-76
2022/10/26 05:24:23;;;;;;;;;;;11.80;99.90;;;;;;5067048;28;19963;-76
2022/10/26 05:26:50;;;;;;;;;;;11.80;99.90;;;;;;5064247;28;19975;-76
2022/10/26 05:29:18;;;;;;;;;;;11.80;99.90;;;;;;5065116;28;20370;-76
2022/10/26 05:31:45;;;;;;;;;;;11.80;99.90;;;;;;5088370;28;20020;-74
2022/10/26 05:34:12;;;;;;;;;;;11.80;99.90;;;;;;5063652;28;20341;-77
2022/10/26 05:36:39;;;;;;;;;;;11.80;99.90;;;;;;5066373;28;19931;-76
2022/10/26 05:39:06;;;;;;;;;;;11.80;99.90;;;;;;5065090;28;20474;-76
2022/10/26 05:41:33;;;;;;;;;;;11.70;99.90;;;;;;5058196;28;19925;-76
2022/10/26 05:43:59;;;;;;;;;;;11.80;99.90;;;;;;5065556;28;19970;-76
2022/10/26 05:46:28;;;;;;;;;;;11.80;99.90;;;;;;5060273;28;20382;-75
2022/10/26 05:48:54;;;;;;;;;;;11.80;99.90;;;;;;5060346;28;20361;-76
2022/10/26 05:51:21;;;;;;;;;;;11.70;99.90;;;;;;5064240;28;19924;-84
2022/10/26 05:53:48;;;;;;;;;;;11.80;99.90;;;;;;5062579;28;19925;-76
2022/10/26 05:56:17;;;;;;;;;;;11.80;99.90;;;;;;5058333;28;19925;-76
2022/10/26 05:58:45;;;;;;;;;;;11.70;99.90;;;;;;5059697;28;19950;-75
2022/10/26 06:01:17;;;;;;;;;;;11.70;99.90;;;;;;5060182;28;20379;-74
2022/10/26 06:03:51;;;;;;;;;;;11.70;99.90;;;;;;5059849;28;20382;-75
2022/10/26 06:06:18;;;;;;;;;;;11.70;99.90;;;;;;5064267;28;19964;-75
2022/10/26 06:08:45;;;;;;;;;;;11.70;99.90;;;;;;5058873;28;19925;-74
2022/10/26 06:11:12;;;;;;;;;;;11.70;99.90;;;;;;5057798;28;19960;-74
2022/10/26 06:13:39;;;;;;;;;;;11.70;99.90;;;;;;5050687;28;19928;-74
2022/10/26 06:16:11;;;;;;;;;;;11.70;99.90;;;;;;5050014;28;21222;-74
2022/10/26 06:18:42;;;;;;;;;;;11.70;99.90;;;;;;5061839;28;20354;-75
2022/10/26 06:21:15;;;;;;;;;;;11.70;99.90;;;;;;5063397;28;19924;-75
2022/10/26 06:23:46;;;;;;;;;;;11.70;99.90;;;;;;5067030;28;19978;-75
2022/10/26 06:26:16;;;;;;;;;;;11.70;99.90;;;;;;5060639;28;20011;-74
2022/10/26 06:28:49;;;;;;;;;;;11.70;99.90;;;;;;5059084;28;19978;-74
2022/10/26 06:31:16;;;;;;;;;;;11.70;99.90;;;;;;5063346;28;20485;-74
2022/10/26 06:33:43;;;;;;;;;;;11.70;99.90;;;;;;5068947;28;19925;-74
2022/10/26 06:36:16;;;;;;;;;;;11.70;99.90;;;;;;5097787;28;19964;-74
2022/10/26 06:38:44;;;;;;;;;;;11.70;99.90;;;;;;5069496;28;20008;-74
2022/10/26 06:41:14;;;;;;;;;;;11.70;99.90;;;;;;5068260;28;19924;-74
2022/10/26 06:43:41;;;;;;;;;;;11.70;99.90;;;;;;5099431;28;19952;-74
2022/10/26 06:46:14;;;;;;;;;;;11.70;99.90;;;;;;5068001;28;19933;-74
2022/10/26 06:48:47;;;;;;;;;;;11.80;99.90;;;;;;5070125;28;19960;-74
2022/10/26 06:51:16;;;;;;;;;;;11.70;99.90;;;;;;5066191;28;20401;-73
2022/10/26 06:53:47;;;;;;;;;;;11.70;99.90;;;;;;5065347;28;19928;-73
2022/10/26 06:56:14;;;;;;;;;;;11.70;99.90;;;;;;5070419;28;20366;-74
2022/10/26 06:58:41;;;;;;;;;;;11.70;99.90;;;;;;5066331;28;19925;-74
2022/10/26 07:01:10;;;;;;;;;;;11.70;99.90;;;;;;5069694;28;19983;-74
2022/10/26 07:03:37;;;;;;;;;;;11.70;99.90;;;;;;5066807;28;20019;-74
2022/10/26 07:06:04;;;;;;;;;;;11.70;99.90;;;;;;5063350;28;19934;-74
2022/10/26 07:08:33;;;;;;;;;;;11.70;99.90;;;;;;5065135;28;20007;-73
2022/10/26 07:10:59;;;;;;;;;;;11.70;99.90;;;;;;5066970;28;19976;-74
2022/10/26 07:13:26;;;;;;;;;;;11.70;99.90;;;;;;5068333;28;19931;-74
2022/10/26 07:15:53;;;;;;;;;;;11.70;99.90;;;;;;5069379;28;20021;-74
2022/10/26 07:18:20;;;;;;;;;;;11.70;99.90;;;;;;5064872;28;19928;-74
2022/10/26 07:20:46;;;;;;;;;;;11.70;99.90;;;;;;5068025;28;19986;-74
2022/10/26 07:23:14;;;;;;;;;;;11.70;99.90;;;;;;5066708;28;20221;-75
2022/10/26 07:25:42;;;;;;;;;;;11.70;99.90;;;;;;5070406;28;20199;-74
2022/10/26 07:28:10;;;;;;;;;;;11.70;99.90;;;;;;5064543;28;19979;-74
2022/10/26 07:30:37;;;;;;;;;;;11.80;99.90;;;;;;5067726;28;20015;-74
2022/10/26 07:33:05;;;;;;;;;;;11.80;99.90;;;;;;5066923;28;20460;-74
2022/10/26 07:35:32;;;;;;;;;;;11.80;99.90;;;;;;5066633;28;19925;-74
2022/10/26 07:37:59;;;;;;;;;;;11.80;99.90;;;;;;5068210;28;19968;-74
2022/10/26 07:40:29;;;;;;;;;;;11.80;99.90;;;;;;5063566;28;19931;-74
2022/10/26 07:42:58;;;;;;;;;;;11.80;99.90;;;;;;5066390;28;19972;-74
2022/10/26 07:45:25;;;;;;;;;;;11.80;99.90;;;;;;5066814;28;20415;-74
2022/10/26 07:47:52;;;;;;;;;;;11.80;99.90;;;;;;5065146;28;19924;-74
2022/10/26 07:50:18;;;;;;;;;;;11.80;99.90;;;;;;5066900;28;19925;-74
2022/10/26 07:52:45;;;;;;;;;;;11.80;99.90;;;;;;5063019;28;20017;-74
2022/10/26 07:55:12;;;;;;;;;;;11.90;99.90;;;;;;5062768;28;19924;-74
2022/10/26 07:57:39;;;;;;;;;;;11.90;99.90;;;;;;5067566;28;19924;-74
2022/10/26 08:00:08;;;;;;;;;;;11.90;99.90;;;;;;5066838;28;20310;-74
2022/10/26 08:02:35;;;;;;;;;;;11.90;99.90;;;;;;5066931;28;19968;-74
2022/10/26 08:05:02;;;;;;;;;;;11.90;99.90;;;;;;5062645;28;20015;-74
2022/10/26 08:07:29;;;;;;;;;;;11.90;99.90;;;;;;5066124;28;19935;-74
2022/10/26 08:09:56;;;;;;;;;;;11.90;99.90;;;;;;5067898;28;19960;-74
2022/10/26 08:12:23;;;;;;;;;;;11.90;99.90;;;;;;5096764;28;20027;-74
2022/10/26 08:14:49;;;;;;;;;;;11.90;99.90;;;;;;5062195;28;19928;-74
2022/10/26 08:17:19;;;;;;;;;;;11.90;99.90;;;;;;5066796;28;19931;-74
2022/10/26 08:19:47;;;;;;;;;;;11.90;99.90;;;;;;5065745;28;19924;-74
2022/10/26 08:22:14;;;;;;;;;;;12.00;99.90;;;;;;5098856;28;20084;-74
2022/10/26 08:24:42;;;;;;;;;;;11.90;99.90;;;;;;5067516;28;19955;-74
2022/10/26 08:27:09;;;;;;;;;;;11.90;99.90;;;;;;5066010;28;19931;-74
2022/10/26 08:29:36;;;;;;;;;;;12.00;99.90;;;;;;5063443;28;19925;-74
2022/10/26 08:32:03;;;;;;;;;;;12.00;99.90;;;;;;5066711;28;19958;-74
2022/10/26 08:34:31;;;;;;;;;;;12.00;99.90;;;;;;5068122;28;20003;-74
2022/10/26 08:36:58;;;;;;;;;;;12.00;99.90;;;;;;5064468;28;20441;-74
2022/10/26 08:39:27;;;;;;;;;;;12.00;99.90;;;;;;5063530;28;19981;-74
2022/10/26 08:41:57;;;;;;;;;;;12.00;99.90;;;;;;5066090;28;19939;-73
2022/10/26 08:44:26;;;;;;;;;;;12.10;99.90;;;;;;5067365;28;19928;-74
2022/10/26 08:46:55;;;;;;;;;;;12.20;99.90;;;;;;5062452;28;20382;-74
2022/10/26 08:49:24;;;;;;;;;;;12.20;99.90;;;;;;5067804;28;19924;-74
2022/10/26 08:51:54;;;;;;;;;;;12.10;99.90;;;;;;5065625;28;19935;-74
2022/10/26 08:54:25;;;;;;;;;;;12.20;99.90;;;;;;5064646;28;20402;-74
2022/10/26 08:56:54;;;;;;;;;;;12.10;99.90;;;;;;5068789;28;19924;-74
2022/10/26 08:59:26;;;;;;;;;;;12.10;99.90;;;;;;5061747;28;19956;-74
2022/10/26 09:01:54;;;;;;;;;;;12.10;99.90;;;;;;5065119;28;19960;-74
2022/10/26 09:04:22;;;;;;;;;;;12.10;99.90;;;;;;5065654;28;19936;-74
2022/10/26 09:06:53;;;;;;;;;;;12.20;99.90;;;;;;5068961;28;19971;-74
2022/10/26 09:09:23;;;;;;;;;;;12.20;99.90;;;;;;5067123;28;19954;-73
2022/10/26 09:11:54;;;;;;;;;;;12.20;99.90;;;;;;5064026;28;20021;-74
2022/10/26 09:14:22;;;;;;;;;;;12.20;99.90;;;;;;5066815;28;19964;-74
2022/10/26 09:16:54;;;;;;;;;;;12.20;99.90;;;;;;5064486;28;19925;-74
2022/10/26 09:19:27;;;;;;;;;;;12.20;99.90;;;;;;5062676;28;19929;-74
2022/10/26 09:21:58;;;;;;;;;;;12.20;99.90;;;;;;5060801;28;19970;-74
2022/10/26 09:24:30;;;;;;;;;;;12.30;99.90;;;;;;5058609;28;19935;-73
2022/10/26 09:27:00;;;;;;;;;;;12.40;99.90;;;;;;5062328;28;19960;-73
2022/10/26 09:29:28;;;;;;;;;;;12.40;99.90;;;;;;5060697;28;19998;-74
2022/10/26 09:31:56;;;;;;;;;;;12.40;99.90;;;;;;5061265;28;20665;-74
2022/10/26 09:34:29;;;;;;;;;;;12.40;99.90;;;;;;5061411;28;19977;-74
2022/10/26 09:36:56;;;;;;;;;;;12.40;99.90;;;;;;5059960;28;19924;-74
2022/10/26 09:39:26;;;;;;;;;;;12.50;99.90;;;;;;5061669;28;20476;-74
2022/10/26 09:41:57;;;;;;;;;;;12.50;99.90;;;;;;5065267;28;19960;-74
2022/10/26 09:44:26;;;;;;;;;;;12.50;99.90;;;;;;5064216;28;19959;-74
2022/10/26 09:46:55;;;;;;;;;;;12.50;99.90;;;;;;5061709;28;19924;-76
2022/10/26 09:49:29;;;;;;;;;;;12.50;99.90;;;;;;5060853;28;19928;-74
2022/10/26 09:51:55;;;;;;;;;;;12.50;99.90;;;;;;5062076;28;19939;-73
2022/10/26 09:54:22;;;;;;;;;;;12.50;99.90;;;;;;5064383;28;19932;-75
2022/10/26 09:56:54;;;;;;;;;;;12.60;99.90;;;;;;5062574;28;19972;-74
2022/10/26 09:59:24;;;;;;;;;;;12.60;99.90;;;;;;5063443;28;19968;-74
2022/10/26 10:01:53;;;;;;;;;;;12.60;99.90;;;;;;5065034;28;19928;-74
2022/10/26 10:04:21;;;;;;;;;;;12.60;99.90;;;;;;5064545;28;20010;-86
2022/10/26 10:06:49;;;;;;;;;;;12.60;99.90;;;;;;5062838;28;20023;-75
2022/10/26 10:09:17;;;;;;;;;;;12.60;99.90;;;;;;5063580;28;20151;-74
2022/10/26 10:11:45;;;;;;;;;;;12.70;99.90;;;;;;5060373;28;19957;-76
2022/10/26 10:14:15;;;;;;;;;;;12.70;99.90;;;;;;5076922;28;19952;-75
2022/10/26 10:16:49;;;;;;;;;;;12.70;99.90;;;;;;5062517;28;20318;-75
2022/10/26 10:19:21;;;;;;;;;;;12.80;99.90;;;;;;5062134;28;19979;-77
2022/10/26 10:21:49;;;;;;;;;;;12.80;99.90;;;;;;5061462;28;20493;-74
2022/10/26 10:24:23;;;;;;;;;;;12.80;99.90;;;;;;5060318;28;20023;-73
2022/10/26 10:27:00;;;;;;;;;;;12.80;99.90;;;;;;5100596;28;19925;-84
2022/10/26 10:29:27;;;;;;;;;;;12.80;99.90;;;;;;5096487;28;19928;-76
2022/10/26 10:31:59;;;;;;;;;;;12.90;99.90;;;;;;5061221;28;20051;-74
2022/10/26 10:34:26;;;;;;;;;;;12.90;99.90;;;;;;5060456;28;19928;-78
2022/10/26 10:36:58;;;;;;;;;;;12.90;99.90;;;;;;5057127;28;20348;-74
2022/10/26 10:39:42;;;;;;;;;;;12.90;99.90;;;;;;5062706;28;19929;-73
2022/10/26 10:42:18;;;;;;;;;;;12.90;99.90;;;;;;5064341;28;19924;-76
2022/10/26 10:44:45;;;;;;;;;;;13.00;99.90;;;;;;5067237;28;20015;-75
2022/10/26 10:47:19;;;;;;;;;;;13.00;99.90;;;;;;5060509;28;20291;-75
2022/10/26 10:49:50;;;;;;;;;;;13.00;99.90;;;;;;5060019;28;20353;-78
2022/10/26 10:52:25;;;;;;;;;;;13.00;99.90;;;;;;5055701;28;19985;-75
2022/10/26 10:54:56;;;;;;;;;;;13.00;99.90;;;;;;5058585;28;19928;-75
2022/10/26 10:57:29;;;;;;;;;;;13.00;99.90;;;;;;5059457;28;19987;-75
2022/10/26 11:00:01;;;;;;;;;;;13.00;99.90;;;;;;5063011;28;19962;-75
2022/10/26 11:02:49;;;;;;;;;;;13.10;99.90;;;;;;5057650;28;20024;-75
2022/10/26 11:05:21;;;;;;;;;;;13.10;99.90;;;;;;5088983;28;19950;-75
2022/10/26 11:07:51;;;;;;;;;;;13.10;99.90;;;;;;5066223;28;19924;-76
2022/10/26 11:10:19;;;;;;;;;;;13.10;99.90;;;;;;5061990;28;20379;-75
2022/10/26 11:12:49;;;;;;;;;;;13.10;99.90;;;;;;5097025;28;19974;-82
2022/10/26 11:15:18;;;;;;;;;;;13.10;99.90;;;;;;5069642;28;19925;-75
2022/10/26 11:17:50;;;;;;;;;;;13.20;99.90;;;;;;5068971;28;20047;-75
2022/10/26 11:20:19;;;;;;;;;;;13.20;99.90;;;;;;5067910;28;19932;-73
2022/10/26 11:22:58;;;;;;;;;;;13.20;99.90;;;;;;5058529;28;19993;-75
2022/10/26 11:25:27;;;;;;;;;;;13.20;99.90;;;;;;5065493;28;20421;-75
2022/10/26 11:27:57;;;;;;;;;;;13.20;99.90;;;;;;5066710;28;19924;-75
2022/10/26 11:30:25;;;;;;;;;;;13.20;99.90;;;;;;5063710;28;19925;-75
2022/10/26 11:32:54;;;;;;;;;;;13.30;99.90;;;;;;5054525;28;21512;-75
2022/10/26 11:35:25;;;;;;;;;;;13.30;99.90;;;;;;5054236;28;19933;-75
2022/10/26 11:37:55;;;;;;;;;;;13.40;99.90;;;;;;5096722;27;19932;-75
2022/10/26 11:40:28;;;;;;;;;;;13.40;99.90;;;;;;5055745;28;20027;-76
2022/10/26 11:42:58;;;;;;;;;;;13.50;99.90;;;;;;5056487;28;20015;-75
2022/10/26 11:45:26;;;;;;;;;;;13.50;99.90;;;;;;5060859;28;19925;-76
2022/10/26 11:47:57;;;;;;;;;;;13.50;99.90;;;;;;5063769;28;19932;-75
2022/10/26 11:50:25;;;;;;;;;;;13.50;99.90;;;;;;5057633;28;21485;-75
2022/10/26 11:52:54;;;;;;;;;;;13.50;99.90;;;;;;5057747;28;20011;-75
2022/10/26 11:55:25;;;;;;;;;;;13.60;99.90;;;;;;5059158;28;19924;-75
2022/10/26 11:57:53;;;;;;;;;;;13.60;99.90;;;;;;5058774;28;20011;-75
2022/10/26 12:00:21;;;;;;;;;;;13.70;99.90;;;;;;5062499;28;19932;-75
2022/10/26 12:02:50;;;;;;;;;;;13.60;99.90;;;;;;5062211;28;19956;-75
2022/10/26 12:05:19;;;;;;;;;;;13.60;99.90;;;;;;5060289;28;19931;-75
2022/10/26 12:07:48;;;;;;;;;;;13.70;99.90;;;;;;5067101;28;20686;-74
2022/10/26 12:10:21;;;;;;;;;;;13.70;99.90;;;;;;5057823;28;19955;-75
2022/10/26 12:12:51;;;;;;;;;;;13.70;99.90;;;;;;5060394;28;20143;-74
2022/10/26 12:15:22;;;;;;;;;;;13.80;99.90;;;;;;5058948;28;19971;-75
2022/10/26 12:17:54;;;;;;;;;;;13.80;99.90;;;;;;5055471;28;19967;-75
2022/10/26 12:20:36;;;;;;;;;;;13.90;99.90;;;;;;5059412;28;19993;-74
2022/10/26 12:23:05;;;;;;;;;;;13.90;99.90;;;;;;5058349;28;19936;-75
2022/10/26 12:25:31;;;;;;;;;;;14.00;99.90;;;;;;5064753;28;19974;-75
2022/10/26 12:28:19;;;;;;;;;;;14.10;99.90;;;;;;5058780;28;19932;-75
2022/10/26 12:30:46;;;;;;;;;;;14.10;99.90;;;;;;5059897;28;19928;-75
2022/10/26 12:33:27;;;;;;;;;;;14.20;99.90;;;;;;5059089;28;19970;-75
2022/10/26 12:35:56;;;;;;;;;;;14.30;99.90;;;;;;5058677;28;20169;-75
2022/10/26 12:38:51;;;;;;;;;;;14.20;99.90;;;;;;5058469;28;20367;-76
2022/10/26 12:41:21;;;;;;;;;;;14.30;99.90;;;;;;5054761;28;19931;-76
2022/10/26 12:43:48;;;;;;;;;;;14.30;99.90;;;;;;5061004;28;20288;-76
2022/10/26 12:46:42;;;;;;;;;;;14.30;99.90;;;;;;5058219;28;20309;-76
2022/10/26 12:49:40;;;;;;;;;;;14.40;99.90;;;;;;5061152;28;19931;-76
2022/10/26 12:52:18;;;;;;;;;;;14.40;99.90;;;;;;5056599;28;19930;-76
2022/10/26 12:54:49;;;;;;;;;;;14.40;99.90;;;;;;5054211;28;19932;-80
2022/10/26 12:57:21;;;;;;;;;;;14.50;99.90;;;;;;5051827;28;19925;-79
2022/10/26 12:59:52;;;;;;;;;;;14.60;99.90;;;;;;5061928;28;20362;-80
2022/10/26 13:02:32;;;;;;;;;;;14.80;99.90;;;;;;5047716;28;19932;-80
2022/10/26 13:05:20;;;;;;;;;;;14.90;99.90;;;;;;5061433;28;19932;-79
2022/10/26 13:07:47;;;;;;;;;;;14.90;99.90;;;;;;5060413;28;20306;-79
2022/10/26 13:10:19;;;;;;;;;;;14.90;99.90;;;;;;5064806;28;19925;-79
2022/10/26 13:12:49;;;;;;;;;;;14.90;99.90;;;;;;5061337;28;20093;-79
2022/10/26 13:15:21;;;;;;;;;;;14.90;99.90;;;;;;5059319;28;19968;-79
2022/10/26 13:17:55;;;;;;;;;;;15.00;99.90;;;;;;5063132;28;20046;-80
2022/10/26 13:20:22;;;;;;;;;;;15.00;99.90;;;;;;5058705;28;19960;-80
2022/10/26 13:22:49;;;;;;;;;;;15.00;99.90;;;;;;5061375;28;19952;-80
2022/10/26 13:25:21;;;;;;;;;;;15.00;99.90;;;;;;5063031;28;20016;-80
2022/10/26 13:27:58;;;;;;;;;;;15.00;99.90;;;;;;5064818;28;19925;-79
2022/10/26 13:30:43;;;;;;;;;;;15.10;99.90;;;;;;5062223;28;19924;-80
2022/10/26 13:33:31;;;;;;;;;;;15.10;99.90;;;;;;5065592;28;19931;-80
2022/10/26 13:35:58;;;;;;;;;;;15.10;99.90;;;;;;5055813;28;20011;-80
2022/10/26 13:38:29;;;;;;;;;;;15.20;99.90;;;;;;5068716;28;19924;-80
2022/10/26 13:41:02;;;;;;;;;;;15.20;99.90;;;;;;5057888;28;20023;-79
2022/10/26 13:43:30;;;;;;;;;;;15.20;99.90;;;;;;5060443;28;19931;-80
2022/10/26 13:46:00;;;;;;;;;;;15.20;99.90;;;;;;5064150;28;19935;-81
2022/10/26 13:48:30;;;;;;;;;;;15.20;99.90;;;;;;5062867;28;20002;-80
2022/10/26 13:50:59;;;;;;;;;;;15.20;99.90;;;;;;5062918;28;22831;-80
2022/10/26 13:53:32;;;;;;;;;;;15.20;99.90;;;;;;5066568;28;19939;-80
2022/10/26 13:56:01;;;;;;;;;;;15.30;99.90;;;;;;5058953;28;19925;-80
2022/10/26 13:58:31;;;;;;;;;;;15.30;99.90;;;;;;5062914;28;20035;-79
2022/10/26 14:01:04;;;;;;;;;;;15.30;99.90;;;;;;5063342;28;19971;-80
2022/10/26 14:03:30;;;;;;;;;;;15.40;99.90;;;;;;5061265;28;19972;-79
2022/10/26 14:05:59;;;;;;;;;;;15.50;99.90;;;;;;5060448;28;20421;-80
2022/10/26 14:08:26;;;;;;;;;;;15.50;99.90;;;;;;5063732;28;20012;-76
2022/10/26 14:10:54;;;;;;;;;;;15.50;99.90;;;;;;5063771;28;20398;-74
2022/10/26 14:13:24;;;;;;;;;;;15.50;99.90;;;;;;5062828;28;19932;-74
2022/10/26 14:15:50;;;;;;;;;;;15.50;99.90;;;;;;5096752;28;19924;-75
2022/10/26 14:18:20;;;;;;;;;;;15.60;99.90;;;;;;5065322;28;19968;-75
2022/10/26 14:20:49;;;;;;;;;;;15.60;99.90;;;;;;5060386;28;19977;-74
2022/10/26 14:23:16;;;;;;;;;;;;;;;;;;5062218;28;19978;-74
2022/10/26 14:25:52;;;;;;;;;;;15.60;99.90;;;;;;5066871;28;19925;-74
2022/10/26 14:28:23;;;;;;;;;;;15.70;99.90;;;;;;5058451;28;20027;-75
2022/10/26 14:30:51;;;;;;;;;;;15.70;99.90;;;;;;5080389;28;19925;-75
2022/10/26 14:33:25;;;;;;;;;;;15.70;99.90;;;;;;5061186;28;19924;-75